Jose R. Sojo, Argentina
Current Conditions -  °F | °C
As of 12:00 AM on Tuesday 21 Oct 2014 (Local Time) from SAEZ Reporting Station
Clear Clear  
Wind Chill: 66°   Ceiling: Unl
Heat Index: 66°   Visibility: 6mi
Dew Point: 54°   Wind: 7mph
Humidity: 64%   Direction: 50°NE
Pressure: 30.12"   Gusts: NA
Location:  35.69°S, 59.59°W
Report Text: SAEZ 210300Z 05006KT 360V070 CAVOK 19/12 Q1020
Loading
Personal Weather Stations






























Interactive Weather Map New forecast layout! Learn more

10-Day Weather Forecast

Advertisements
Track Severe Weather on mobile